Details for AirAsia at WMKL




Go Back


Latest METAR
Local Time

WMKL 241300Z 04005KT 330V100 9999 FEW025 BKN270 29/23 Q1010

24/02/2018, 21:44:24

Description
Results
AirAsia Logo
Number of Pilots based at WMKL
0 Pilots Based here
Number of AirAsia Flights Departed from WMKL
0 Flights Departed
Number of AirAsia Flights Arrived at WMKL
0 Flights Arrived
Number of AirAsia Schedules Departing from WMKL
20 Schedules
Number of AirAsia Schedules Arriving at WMKL
18 Schedules
Number of AirAsia Schedules Departing from WMKL availible today
14 Schedules Today
Number of AirAsia Schedules Arriving at WMKL availible today
15 Schedules Today
Average Landing Rate at WMKL
0 fpm
AirAsia Average Landing Rate at WMKL
0 fpm
Total Fuel Purchased at WMKL by AirAsia
0.00 kgs / 0.00 lbs

Pilots Based at WMKL


Pilot ID
Pilot Name
Pilot Rank
No. of Flights
No. of Flying Hours
There are no pilots assigned to this hub!   Will you be the first?
Content